createdAt,value
2018-09-12T00:01:08.187Z,76.23
2018-09-12T00:03:36.645Z,75.77
2018-09-12T00:06:05.090Z,76.17
2018-09-12T00:08:33.563Z,76.02
2018-09-12T00:11:02.044Z,76.22
2018-09-12T00:13:30.489Z,76.22
2018-09-12T00:15:58.949Z,76.29
2018-09-12T00:18:27.382Z,76.50
2018-09-12T00:20:56.041Z,76.39
2018-09-12T00:23:24.514Z,76.56
2018-09-12T00:25:53.232Z,76.49
2018-09-12T00:28:21.766Z,76.45
2018-09-12T00:30:51.553Z,76.31
2018-09-12T00:33:19.990Z,76.31
2018-09-12T00:35:48.470Z,76.34
2018-09-12T00:38:17.168Z,76.31
2018-09-12T00:40:45.659Z,76.15
2018-09-12T00:43:15.663Z,76.24
2018-09-12T00:45:44.295Z,76.01
2018-09-12T00:48:12.733Z,76.00
2018-09-12T00:50:41.200Z,75.99
2018-09-12T00:53:09.670Z,75.94
2018-09-12T00:55:38.174Z,75.78
2018-09-12T00:58:06.629Z,75.67
2018-09-12T01:00:35.129Z,75.50
2018-09-12T01:03:03.570Z,75.62
2018-09-12T01:05:32.799Z,75.67
2018-09-12T01:08:01.313Z,75.81
2018-09-12T01:10:29.750Z,75.81
2018-09-12T01:12:58.183Z,75.95
2018-09-12T01:15:26.738Z,75.86
2018-09-12T01:17:55.166Z,75.96
2018-09-12T01:20:23.812Z,75.90
2018-09-12T01:22:52.443Z,75.98
2018-09-12T01:25:20.877Z,76.04
2018-09-12T01:27:53.577Z,75.94
2018-09-12T01:30:23.373Z,75.98
2018-09-12T01:32:53.010Z,75.92
2018-09-12T01:35:21.725Z,75.73
2018-09-12T01:37:50.240Z,75.62
2018-09-12T01:40:18.686Z,75.56
2018-09-12T01:42:47.154Z,75.53
2018-09-12T01:45:16.957Z,75.51
2018-09-12T01:47:45.477Z,75.46
2018-09-12T01:50:14.230Z,75.33
2018-09-12T01:52:42.710Z,75.11
2018-09-12T01:55:11.150Z,75.15
2018-09-12T01:57:39.686Z,75.23
2018-09-12T02:00:13.667Z,75.17
2018-09-12T02:02:42.281Z,75.10
2018-09-12T02:05:10.741Z,74.92
2018-09-12T02:07:39.386Z,74.98
2018-09-12T02:10:09.545Z,74.93
2018-09-12T02:12:38.011Z,74.97
2018-09-12T02:15:06.860Z,74.77
2018-09-12T02:17:35.329Z,74.89
2018-09-12T02:20:04.201Z,74.90
2018-09-12T02:22:32.881Z,75.03
2018-09-12T02:25:01.731Z,74.94
2018-09-12T02:27:30.223Z,74.92
2018-09-12T02:29:58.741Z,74.89
2018-09-12T02:32:27.313Z,74.82
2018-09-12T02:34:56.218Z,74.96
2018-09-12T02:37:24.781Z,74.95
2018-09-12T02:39:53.389Z,74.86
2018-09-12T02:42:22.526Z,74.67
2018-09-12T02:44:51.546Z,74.94
2018-09-12T02:47:25.396Z,74.72
2018-09-12T02:49:54.318Z,74.79
2018-09-12T02:52:22.766Z,74.39
2018-09-12T02:54:51.559Z,74.51
2018-09-12T02:57:19.982Z,74.28
2018-09-12T02:59:48.441Z,74.46
2018-09-12T03:02:16.939Z,74.30
2018-09-12T03:04:45.403Z,74.49
2018-09-12T03:07:13.938Z,74.58
2018-09-12T03:09:42.544Z,74.48
2018-09-12T03:12:10.973Z,74.37
2018-09-12T03:14:39.393Z,74.28
2018-09-12T03:17:07.842Z,74.24
2018-09-12T03:19:36.306Z,74.04
2018-09-12T03:22:04.901Z,74.08
2018-09-12T03:24:33.680Z,74.36
2018-09-12T03:27:02.266Z,73.95
2018-09-12T03:29:30.750Z,73.90
2018-09-12T03:31:59.354Z,73.86
2018-09-12T03:34:27.842Z,73.77
2018-09-12T03:36:56.842Z,74.00
2018-09-12T03:39:25.455Z,73.81
2018-09-12T03:41:53.877Z,73.75
2018-09-12T03:44:22.330Z,73.99
2018-09-12T03:46:50.781Z,73.80
2018-09-12T03:49:19.204Z,73.69
2018-09-12T03:51:47.637Z,73.96
2018-09-12T03:54:16.122Z,73.74
2018-09-12T03:56:45.261Z,73.79
2018-09-12T03:59:14.398Z,73.84
2018-09-12T04:01:42.926Z,73.54
2018-09-12T04:04:11.357Z,73.59
2018-09-12T04:06:39.802Z,73.05
2018-09-12T04:09:09.221Z,73.25
2018-09-12T04:11:37.685Z,73.20
2018-09-12T04:14:06.193Z,73.13
2018-09-12T04:16:34.697Z,72.86
2018-09-12T04:19:03.141Z,73.09
2018-09-12T04:21:31.621Z,73.21
2018-09-12T04:24:00.093Z,72.81
2018-09-12T04:26:28.554Z,72.95
2018-09-12T04:28:57.423Z,72.98
2018-09-12T04:31:25.894Z,72.57
2018-09-12T04:33:54.337Z,72.67
2018-09-12T04:36:22.806Z,72.85
2018-09-12T04:38:52.142Z,72.78
2018-09-12T04:41:20.598Z,72.83
2018-09-12T04:43:49.030Z,72.90
2018-09-12T04:46:17.477Z,72.62
2018-09-12T04:48:45.953Z,72.87
2018-09-12T04:51:14.389Z,72.64
2018-09-12T04:53:42.865Z,72.39
2018-09-12T04:56:11.434Z,72.48
2018-09-12T04:58:41.221Z,72.41
2018-09-12T05:01:10.050Z,72.81
2018-09-12T05:03:38.485Z,72.50
2018-09-12T05:06:07.176Z,72.71
2018-09-12T05:08:35.661Z,72.63
2018-09-12T05:11:04.098Z,72.40
2018-09-12T05:13:32.552Z,72.29
2018-09-12T05:16:01.078Z,72.52
2018-09-12T05:18:29.465Z,72.20
2018-09-12T05:20:57.923Z,72.31
2018-09-12T05:23:26.418Z,72.35
2018-09-12T05:25:54.874Z,72.28
2018-09-12T05:28:23.376Z,72.23
2018-09-12T05:30:53.217Z,72.12
2018-09-12T05:33:22.034Z,72.10
2018-09-12T05:35:50.550Z,71.92
2018-09-12T05:38:19.284Z,72.03
2018-09-12T05:40:48.000Z,71.94
2018-09-12T05:43:16.455Z,72.15
2018-09-12T05:45:44.968Z,71.60
2018-09-12T05:48:13.456Z,71.63
2018-09-12T05:50:41.902Z,71.63
2018-09-12T05:53:10.390Z,71.55
2018-09-12T05:55:38.832Z,71.44
2018-09-12T05:58:07.618Z,71.40
2018-09-12T06:00:36.194Z,71.30
2018-09-12T06:03:04.783Z,71.24
2018-09-12T06:05:33.269Z,71.16
2018-09-12T06:08:01.851Z,71.43
2018-09-12T06:10:30.295Z,71.28
2018-09-12T06:12:58.721Z,71.14
2018-09-12T06:15:27.177Z,71.08
2018-09-12T06:17:55.717Z,71.15
2018-09-12T06:20:24.176Z,70.80
2018-09-12T06:22:52.653Z,70.46
2018-09-12T06:25:27.229Z,69.88
2018-09-12T06:27:55.745Z,69.90
2018-09-12T06:30:33.098Z,69.93
2018-09-12T06:33:02.873Z,69.97
2018-09-12T06:35:31.399Z,69.27
2018-09-12T06:37:59.881Z,68.98
2018-09-12T06:40:28.447Z,69.01
2018-09-12T06:42:57.462Z,68.32
2018-09-12T06:45:25.897Z,67.95
2018-09-12T06:47:54.428Z,67.57
2018-09-12T06:50:22.873Z,67.18
2018-09-12T06:52:51.410Z,67.98
2018-09-12T06:55:19.874Z,67.53
2018-09-12T06:57:48.414Z,67.64
2018-09-12T07:00:16.889Z,66.63
2018-09-12T07:02:46.238Z,66.28
2018-09-12T07:05:15.083Z,65.41
2018-09-12T07:07:43.613Z,66.25
2018-09-12T07:10:12.156Z,64.93
2018-09-12T07:12:40.600Z,64.18
2018-09-12T07:15:09.093Z,63.14
2018-09-12T07:17:37.545Z,62.98
2018-09-12T07:20:06.042Z,62.92
2018-09-12T07:22:34.474Z,62.96
2018-09-12T07:25:02.948Z,62.76
2018-09-12T07:27:31.389Z,61.79
2018-09-12T07:29:59.901Z,62.15
2018-09-12T07:32:28.357Z,61.65
2018-09-12T07:34:56.937Z,60.43
2018-09-12T07:37:25.881Z,60.64
2018-09-12T07:39:54.517Z,60.83
2018-09-12T07:42:23.246Z,60.17
2018-09-12T07:44:52.143Z,59.98
2018-09-12T07:47:20.621Z,58.76
2018-09-12T07:49:49.049Z,59.02
2018-09-12T07:52:17.481Z,58.45
2018-09-12T07:54:46.014Z,58.97
2018-09-12T07:57:14.503Z,59.42
2018-09-12T07:59:43.694Z,58.22
2018-09-12T08:02:12.227Z,59.13
2018-09-12T08:04:41.580Z,58.91
2018-09-12T08:07:10.020Z,58.30
2018-09-12T08:09:38.465Z,57.30
2018-09-12T08:12:06.927Z,57.81
2018-09-12T08:14:35.355Z,58.24
2018-09-12T08:17:03.853Z,57.88
2018-09-12T08:19:32.282Z,57.06
2018-09-12T08:22:00.702Z,57.27
2018-09-12T08:24:29.174Z,57.25
2018-09-12T08:26:57.864Z,57.32
2018-09-12T08:29:26.350Z,56.40
2018-09-12T08:31:54.830Z,56.84
2018-09-12T08:34:23.261Z,57.43
2018-09-12T08:36:51.861Z,57.22
2018-09-12T08:39:20.364Z,55.69
2018-09-12T08:41:48.830Z,55.66
2018-09-12T08:44:17.386Z,55.91
2018-09-12T08:46:45.945Z,55.58
2018-09-12T08:49:15.080Z,55.73
2018-09-12T08:51:44.178Z,55.75
2018-09-12T08:54:12.721Z,55.67
2018-09-12T08:56:41.204Z,55.96
2018-09-12T08:59:09.601Z,55.76
2018-09-12T09:01:38.221Z,55.19
2018-09-12T09:04:07.104Z,55.80
2018-09-12T09:06:35.850Z,55.59
2018-09-12T09:09:06.750Z,54.84
2018-09-12T09:11:35.287Z,54.42
2018-09-12T09:14:04.786Z,55.24
2018-09-12T09:16:33.358Z,54.85
2018-09-12T09:19:02.476Z,53.74
2018-09-12T09:21:31.547Z,53.46
2018-09-12T09:24:00.155Z,53.28
2018-09-12T09:26:28.582Z,53.20
2018-09-12T09:28:57.213Z,53.68
2018-09-12T09:31:25.722Z,53.91
2018-09-12T09:33:54.302Z,54.17
2018-09-12T09:36:22.997Z,54.56
2018-09-12T09:38:51.897Z,53.41
2018-09-12T09:41:20.369Z,53.22
2018-09-12T09:43:48.791Z,54.01
2018-09-12T09:46:17.266Z,53.50
2018-09-12T09:48:45.990Z,53.71
2018-09-12T09:51:15.081Z,53.24
2018-09-12T09:53:44.500Z,52.43
2018-09-12T09:56:13.903Z,50.91
2018-09-12T09:58:43.253Z,50.53
2018-09-12T10:01:16.974Z,51.60
2018-09-12T10:03:51.158Z,51.63
2018-09-12T10:06:20.606Z,50.94
2018-09-12T10:08:56.946Z,51.47
2018-09-12T10:11:25.501Z,51.49
2018-09-12T10:13:53.969Z,51.13
2018-09-12T10:16:22.956Z,50.87
2018-09-12T10:18:51.470Z,49.64
2018-09-12T10:21:19.899Z,50.33
2018-09-12T10:23:48.442Z,50.70
2018-09-12T10:26:18.012Z,50.65
2018-09-12T10:28:46.483Z,50.41
2018-09-12T10:31:15.250Z,51.01
2018-09-12T10:33:43.752Z,51.35
2018-09-12T10:36:12.181Z,51.88
2018-09-12T10:38:40.613Z,52.42
2018-09-12T10:41:09.468Z,51.85
2018-09-12T10:43:37.869Z,51.82
2018-09-12T10:46:06.358Z,51.91
2018-09-12T10:48:34.840Z,52.02
2018-09-12T10:51:03.315Z,52.17
2018-09-12T10:53:31.950Z,52.04
2018-09-12T10:56:00.423Z,52.23
2018-09-12T10:58:29.399Z,52.59
2018-09-12T11:00:57.847Z,52.42
2018-09-12T11:03:26.365Z,52.27
2018-09-12T11:05:54.785Z,52.13
2018-09-12T11:08:23.377Z,51.64
2018-09-12T11:10:52.338Z,51.29
2018-09-12T11:13:20.775Z,51.73
2018-09-12T11:15:49.764Z,51.89
2018-09-12T11:18:18.234Z,51.82
2018-09-12T11:20:46.729Z,49.76
2018-09-12T11:23:15.153Z,50.30
2018-09-12T11:25:45.126Z,50.01
2018-09-12T11:28:13.541Z,49.71
2018-09-12T11:30:42.278Z,47.57
2018-09-12T11:33:11.202Z,47.64
2018-09-12T11:35:39.630Z,47.08
2018-09-12T11:38:08.088Z,47.01
2018-09-12T11:40:36.591Z,47.39
2018-09-12T11:43:05.210Z,47.44
2018-09-12T11:45:33.653Z,47.71
2018-09-12T11:48:02.125Z,46.16
2018-09-12T11:50:30.661Z,46.38
2018-09-12T11:52:59.124Z,45.20
2018-09-12T11:55:27.604Z,44.63
2018-09-12T11:57:56.080Z,44.71
2018-09-12T12:00:24.514Z,43.65
2018-09-12T12:02:52.997Z,43.95
2018-09-12T12:05:21.830Z,43.93
2018-09-12T12:07:50.966Z,44.18
2018-09-12T12:10:19.543Z,43.97
2018-09-12T12:12:48.090Z,42.53
2018-09-12T12:15:16.565Z,41.95
2018-09-12T12:17:45.071Z,41.94
2018-09-12T12:20:14.147Z,42.82
2018-09-12T12:22:42.674Z,42.43
2018-09-12T12:25:11.265Z,42.73
2018-09-12T12:27:39.802Z,43.54
2018-09-12T12:30:08.273Z,43.62
2018-09-12T12:32:36.850Z,43.35
2018-09-12T12:35:05.439Z,42.35
2018-09-12T12:37:33.933Z,41.86
2018-09-12T12:40:02.422Z,41.94
2018-09-12T12:42:30.854Z,41.04
2018-09-12T12:44:59.466Z,40.74
2018-09-12T12:47:28.280Z,40.28
2018-09-12T12:49:57.063Z,40.77
2018-09-12T12:52:25.517Z,39.90
2018-09-12T12:54:54.050Z,40.67
2018-09-12T12:57:23.073Z,40.25
2018-09-12T12:59:51.498Z,40.25
2018-09-12T13:02:19.986Z,40.76
2018-09-12T13:04:48.425Z,40.78
2018-09-12T13:07:16.898Z,41.23
2018-09-12T13:09:45.374Z,40.87
2018-09-12T13:12:13.814Z,40.77
2018-09-12T13:14:42.557Z,40.60
2018-09-12T13:17:11.011Z,40.76
2018-09-12T13:19:39.458Z,41.70
2018-09-12T13:22:07.913Z,41.58
2018-09-12T13:24:36.402Z,40.56
2018-09-12T13:27:04.830Z,40.67
2018-09-12T13:29:33.379Z,40.34
2018-09-12T13:32:01.993Z,39.60
2018-09-12T13:34:30.763Z,38.45
2018-09-12T13:36:59.146Z,38.81
2018-09-12T13:39:28.791Z,39.32
2018-09-12T13:41:57.223Z,38.88
2018-09-12T13:44:25.732Z,38.93
2018-09-12T13:46:54.329Z,40.30
2018-09-12T13:49:22.760Z,40.39
2018-09-12T13:51:51.915Z,41.00
2018-09-12T13:54:20.416Z,41.56
2018-09-12T13:56:49.188Z,41.69
2018-09-12T13:59:17.628Z,41.87
2018-09-12T14:01:46.916Z,42.30
2018-09-12T14:04:16.226Z,42.02
2018-09-12T14:06:44.729Z,42.11
2018-09-12T14:09:13.221Z,41.60
2018-09-12T14:11:41.690Z,42.21
2018-09-12T14:14:10.420Z,40.15
2018-09-12T14:16:39.396Z,41.49
2018-09-12T14:19:07.854Z,40.89
2018-09-12T14:21:36.292Z,40.62
2018-09-12T14:24:04.918Z,38.59
2018-09-12T14:26:33.354Z,37.81
2018-09-12T14:29:01.781Z,37.65
2018-09-12T14:31:30.653Z,37.25
2018-09-12T14:33:59.133Z,36.57
2018-09-12T14:36:27.574Z,35.54
2018-09-12T14:38:56.082Z,36.10
2018-09-12T14:41:24.526Z,36.15
2018-09-12T14:43:52.962Z,36.80
2018-09-12T14:46:21.470Z,36.41
2018-09-12T14:48:50.069Z,35.94
2018-09-12T14:51:18.510Z,35.86
2018-09-12T14:53:47.073Z,35.97
2018-09-12T14:56:16.075Z,36.35
2018-09-12T14:58:44.809Z,36.85
2018-09-12T15:01:13.595Z,38.08
2018-09-12T15:03:42.051Z,38.17
2018-09-12T15:06:10.755Z,37.99
2018-09-12T15:08:39.240Z,38.01
2018-09-12T15:11:07.733Z,38.10
2018-09-12T15:13:36.177Z,38.58
2018-09-12T15:16:04.931Z,39.38
2018-09-12T15:18:33.706Z,38.81
2018-09-12T15:21:02.145Z,38.26
2018-09-12T15:23:30.602Z,37.83
2018-09-12T15:25:59.042Z,38.26
2018-09-12T15:28:27.506Z,37.80
2018-09-12T15:30:56.475Z,38.63
2018-09-12T15:33:25.028Z,38.91
2018-09-12T15:35:53.502Z,39.31
2018-09-12T15:38:22.445Z,40.46
2018-09-12T15:40:50.951Z,40.50
2018-09-12T15:43:19.459Z,40.82
2018-09-12T15:45:47.930Z,40.57
2018-09-12T15:48:17.003Z,41.39
2018-09-12T15:50:46.071Z,41.78
2018-09-12T15:53:14.749Z,42.29
2018-09-12T15:55:43.187Z,42.47
2018-09-12T15:58:11.644Z,43.20
2018-09-12T16:00:40.118Z,43.02
2018-09-12T16:03:08.553Z,43.59
2018-09-12T16:05:37.066Z,43.80
2018-09-12T16:08:05.794Z,44.05
2018-09-12T16:10:34.245Z,44.15
2018-09-12T16:13:02.717Z,44.59
2018-09-12T16:15:31.198Z,44.27
2018-09-12T16:18:00.337Z,44.69
2018-09-12T16:20:28.997Z,44.27
2018-09-12T16:22:57.450Z,44.89
2018-09-12T16:25:25.935Z,45.34
2018-09-12T16:27:54.381Z,45.86
2018-09-12T16:30:22.844Z,46.31
2018-09-12T16:32:51.363Z,46.49
2018-09-12T16:35:19.893Z,46.37
2018-09-12T16:37:48.357Z,47.13
2018-09-12T16:40:17.101Z,47.15
2018-09-12T16:42:46.034Z,47.51
2018-09-12T16:45:14.862Z,47.30
2018-09-12T16:47:43.705Z,48.01
2018-09-12T16:50:12.141Z,47.91
2018-09-12T16:52:40.950Z,48.43
2018-09-12T16:55:09.397Z,48.71
2018-09-12T16:57:37.821Z,48.92
2018-09-12T17:00:06.400Z,49.19
2018-09-12T17:02:35.138Z,49.30
2018-09-12T17:05:03.693Z,49.52
2018-09-12T17:07:32.146Z,49.44
2018-09-12T17:10:00.568Z,49.92
2018-09-12T17:12:29.346Z,49.86
2018-09-12T17:14:57.818Z,49.73
2018-09-12T17:17:26.261Z,49.93
2018-09-12T17:19:54.719Z,50.28
2018-09-12T17:22:23.312Z,50.35
2018-09-12T17:24:51.743Z,50.53
2018-09-12T17:27:20.163Z,50.37
2018-09-12T17:29:48.881Z,50.55
2018-09-12T17:32:17.357Z,50.83
2018-09-12T17:34:46.525Z,51.10
2018-09-12T17:37:15.548Z,50.76
2018-09-12T17:39:44.769Z,50.76
2018-09-12T17:42:13.208Z,50.94
2018-09-12T17:44:41.679Z,51.26
2018-09-12T17:47:10.133Z,51.37
2018-09-12T17:49:38.593Z,51.73
2018-09-12T17:52:07.097Z,51.49
2018-09-12T17:54:35.829Z,51.37
2018-09-12T17:57:04.303Z,52.06
2018-09-12T17:59:32.766Z,51.48
2018-09-12T18:02:01.498Z,52.04
2018-09-12T18:04:29.925Z,51.98
2018-09-12T18:06:58.370Z,51.86
2018-09-12T18:09:26.802Z,52.21
2018-09-12T18:11:55.298Z,52.16
2018-09-12T18:14:23.833Z,52.55
2018-09-12T18:16:52.285Z,52.48
2018-09-12T18:19:20.737Z,52.56
2018-09-12T18:21:49.289Z,52.59
2018-09-12T18:24:17.877Z,52.56
2018-09-12T18:26:46.381Z,53.02
2018-09-12T18:29:15.685Z,52.98
2018-09-12T18:31:44.134Z,52.79
2018-09-12T18:34:12.569Z,53.35
2018-09-12T18:36:41.332Z,53.38
2018-09-12T18:39:10.466Z,53.27
2018-09-12T18:41:38.942Z,53.67
2018-09-12T18:44:08.179Z,53.35
2018-09-12T18:46:36.639Z,53.84
2018-09-12T18:49:05.122Z,53.76
2018-09-12T18:51:33.618Z,53.78
2018-09-12T18:54:02.159Z,53.64
2018-09-12T18:56:30.681Z,53.99
2018-09-12T18:58:59.211Z,53.70
2018-09-12T19:01:27.694Z,54.05
2018-09-12T19:03:56.138Z,54.05
2018-09-12T19:06:24.633Z,54.68
2018-09-12T19:08:53.118Z,54.71
2018-09-12T19:11:21.666Z,55.11
2018-09-12T19:13:50.162Z,55.23
2018-09-12T19:16:18.634Z,55.18
2018-09-12T19:18:47.179Z,55.06
2018-09-12T19:21:16.560Z,55.26
2018-09-12T19:23:45.366Z,55.41
2018-09-12T19:26:14.274Z,55.34
2018-09-12T19:28:42.812Z,55.91
2018-09-12T19:31:11.259Z,56.07
2018-09-12T19:33:39.736Z,55.89
2018-09-12T19:36:08.517Z,56.20
2018-09-12T19:38:36.981Z,56.29
2018-09-12T19:41:05.437Z,56.26
2018-09-12T19:43:33.939Z,56.26
2018-09-12T19:46:02.414Z,56.13
2018-09-12T19:48:30.849Z,56.58
2018-09-12T19:50:59.348Z,56.62
2018-09-12T19:53:27.809Z,56.65
2018-09-12T19:55:56.269Z,56.87
2018-09-12T19:58:24.949Z,56.95
2018-09-12T20:00:53.969Z,57.23
2018-09-12T20:03:22.458Z,57.58
2018-09-12T20:05:50.973Z,57.78
2018-09-12T20:08:19.414Z,57.76
2018-09-12T20:10:47.891Z,57.91
2018-09-12T20:13:16.926Z,58.05
2018-09-12T20:15:45.457Z,58.13
2018-09-12T20:18:14.448Z,58.31
2018-09-12T20:20:42.989Z,58.45
2018-09-12T20:23:11.455Z,58.47
2018-09-12T20:25:40.094Z,58.64
2018-09-12T20:28:08.997Z,58.48
2018-09-12T20:30:37.446Z,58.85
2018-09-12T20:33:05.926Z,58.61
2018-09-12T20:35:34.419Z,58.92
2018-09-12T20:38:03.196Z,59.05
2018-09-12T20:40:31.681Z,59.14
2018-09-12T20:43:00.187Z,59.12
2018-09-12T20:45:28.640Z,59.16
2018-09-12T20:47:57.094Z,59.32
2018-09-12T20:50:25.641Z,59.47
2018-09-12T20:52:54.099Z,59.77
2018-09-12T20:55:22.529Z,59.77
2018-09-12T20:57:51.247Z,59.89
2018-09-12T21:00:19.958Z,60.23
2018-09-12T21:02:48.517Z,60.26
2018-09-12T21:05:17.097Z,60.40
2018-09-12T21:07:45.638Z,60.66
2018-09-12T21:10:14.089Z,60.55
2018-09-12T21:12:42.547Z,60.55
2018-09-12T21:15:10.986Z,60.52
2018-09-12T21:17:39.439Z,60.60
2018-09-12T21:20:08.000Z,60.88
2018-09-12T21:22:36.428Z,60.98
2018-09-12T21:25:04.953Z,61.02
2018-09-12T21:27:33.432Z,61.02
2018-09-12T21:30:02.141Z,61.23
2018-09-12T21:32:30.589Z,61.21
2018-09-12T21:34:59.065Z,61.21
2018-09-12T21:37:28.221Z,61.44
2018-09-12T21:39:56.672Z,61.62
2018-09-12T21:42:25.505Z,61.87
2018-09-12T21:44:54.481Z,61.95
2018-09-12T21:47:22.933Z,61.55
2018-09-12T21:49:51.419Z,61.79
2018-09-12T21:52:20.481Z,61.91
2018-09-12T21:54:48.929Z,61.91
2018-09-12T21:57:17.452Z,61.79
2018-09-12T21:59:45.901Z,62.03
2018-09-12T22:02:14.865Z,61.94
2018-09-12T22:04:43.353Z,62.28
2018-09-12T22:07:11.970Z,62.43
2018-09-12T22:09:40.424Z,62.81
2018-09-12T22:12:08.977Z,62.72
2018-09-12T22:14:37.403Z,62.82
2018-09-12T22:17:05.935Z,62.87
2018-09-12T22:19:34.824Z,62.86
2018-09-12T22:22:03.262Z,63.06
2018-09-12T22:24:31.734Z,62.88
2018-09-12T22:27:00.203Z,63.23
2018-09-12T22:29:29.017Z,63.38
2018-09-12T22:31:57.683Z,63.76
2018-09-12T22:34:26.160Z,63.81
2018-09-12T22:36:54.907Z,63.70
2018-09-12T22:39:23.349Z,64.07
2018-09-12T22:41:51.826Z,64.17
2018-09-12T22:44:20.361Z,64.25
2018-09-12T22:46:48.813Z,64.42
2018-09-12T22:49:17.265Z,64.74
2018-09-12T22:51:46.325Z,64.64
2018-09-12T22:54:14.757Z,64.79
2018-09-12T22:56:43.217Z,65.07
2018-09-12T22:59:11.657Z,65.06
2018-09-12T23:01:40.083Z,65.10
2018-09-12T23:04:09.006Z,65.41
2018-09-12T23:06:37.911Z,65.37
2018-09-12T23:09:08.265Z,65.61
2018-09-12T23:11:36.777Z,65.58
2018-09-12T23:14:06.043Z,65.82
2018-09-12T23:16:34.467Z,65.95
2018-09-12T23:19:02.950Z,66.23
2018-09-12T23:21:31.414Z,66.36
2018-09-12T23:23:59.885Z,66.48
2018-09-12T23:26:28.405Z,66.45
2018-09-12T23:28:56.826Z,66.43
2018-09-12T23:31:25.687Z,66.92
2018-09-12T23:33:54.514Z,66.96
2018-09-12T23:36:23.309Z,67.06
2018-09-12T23:38:51.793Z,67.29
2018-09-12T23:41:20.270Z,67.13
2018-09-12T23:43:49.041Z,67.51
2018-09-12T23:46:17.753Z,67.47
2018-09-12T23:48:46.953Z,67.59
2018-09-12T23:51:15.383Z,67.85
2018-09-12T23:53:43.810Z,67.82
2018-09-12T23:56:12.273Z,68.09
2018-09-12T23:58:40.843Z,68.17
